Time;durP1;ratioP1;P1;durP2;ratioP2;P2;SDS_P1;SDS_P2;PMS_P1;PMS_P2;Temp;Humidity;BMP_temperature;BMP_pressure;BME280_temperature;BME280_humidity;BME280_pressure;Samples;Min_cycle;Max_cycle;Signal;HPM_P1;HPM_P2
2021/05/24 00:00:23;;;;;;;;;;;15.00;74.80;;;;;;4941621;28;95832;-41
2021/05/24 00:02:54;;;;;;;5.57;4.32;;;15.00;74.90;;;;;;4943756;28;95459;-41
2021/05/24 00:05:27;;;;;;;6.72;4.53;;;15.10;75.10;;;;;;4945344;28;96893;-43
2021/05/24 00:07:59;;;;;;;5.85;4.57;;;15.10;75.10;;;;;;4939069;28;95832;-44
2021/05/24 00:10:33;;;;;;;6.45;4.40;;;15.30;75.40;;;;;;4947235;28;95880;-52
2021/05/24 00:13:08;;;;;;;5.80;4.70;;;15.30;75.50;;;;;;4941881;28;96441;-41
2021/05/24 00:15:46;;;;;;;5.18;4.00;;;15.40;75.60;;;;;;4941068;28;97140;-40
2021/05/24 00:18:18;;;;;;;7.53;4.53;;;15.50;75.70;;;;;;4940873;28;96279;-41
2021/05/24 00:21:00;;;;;;;6.32;4.47;;;15.50;75.80;;;;;;4951513;28;95856;-45
2021/05/24 00:23:30;;;;;;;5.65;4.20;;;15.60;75.90;;;;;;4942198;28;96092;-40
2021/05/24 00:26:02;;;;;;;8.70;4.22;;;15.70;76.00;;;;;;4944916;28;95864;-47
2021/05/24 00:28:33;;;;;;;4.53;4.07;;;15.70;76.00;;;;;;4944760;28;96494;-41
2021/05/24 00:31:03;;;;;;;5.60;4.10;;;15.80;76.10;;;;;;4940892;28;95846;-41
2021/05/24 00:33:35;;;;;;;4.20;3.72;;;15.80;76.10;;;;;;4927636;28;96045;-42
2021/05/24 00:36:06;;;;;;;6.03;3.78;;;15.90;76.30;;;;;;4925848;28;96593;-47
2021/05/24 00:38:37;;;;;;;6.28;4.15;;;15.90;76.20;;;;;;4924776;28;95949;-46
2021/05/24 00:41:09;;;;;;;4.65;3.78;;;16.00;76.20;;;;;;4929321;28;95928;-50
2021/05/24 00:43:41;;;;;;;5.53;4.32;;;16.00;76.20;;;;;;4926082;28;96637;-49
2021/05/24 00:46:12;;;;;;;6.38;3.65;;;16.10;76.10;;;;;;4925062;28;95839;-42
2021/05/24 00:48:43;;;;;;;5.30;3.50;;;16.20;76.30;;;;;;4926790;28;95814;-44
2021/05/24 00:51:13;;;;;;;10.03;4.10;;;16.20;76.10;;;;;;4930657;28;95890;-44
2021/05/24 00:53:43;;;;;;;6.10;3.80;;;16.20;75.00;;;;;;4924462;28;96155;-44
2021/05/24 00:56:13;;;;;;;6.15;4.68;;;16.20;75.10;;;;;;4925023;28;96562;-41
2021/05/24 00:58:46;;;;;;;5.50;4.50;;;16.30;75.30;;;;;;4939743;28;96411;-40
2021/05/24 01:01:17;;;;;;;6.70;3.97;;;16.40;75.50;;;;;;4926957;28;96072;-38
2021/05/24 01:03:47;;;;;;;4.28;3.50;;;16.50;75.50;;;;;;4938589;28;96008;-46
2021/05/24 01:06:21;;;;;;;6.13;3.17;;;16.50;75.50;;;;;;4937093;28;96079;-42
2021/05/24 01:08:53;;;;;;;4.75;3.67;;;16.50;75.40;;;;;;4936374;28;95887;-41
2021/05/24 01:11:24;;;;;;;5.18;4.00;;;16.60;75.50;;;;;;4925710;28;95944;-41
2021/05/24 01:13:56;;;;;;;4.57;3.85;;;16.60;75.50;;;;;;4930585;28;95969;-44
2021/05/24 01:16:28;;;;;;;5.13;3.22;;;16.70;75.60;;;;;;4920018;28;96620;-40
2021/05/24 01:18:59;;;;;;;4.03;3.00;;;16.70;75.70;;;;;;4929022;28;95995;-40
2021/05/24 01:21:30;;;;;;;4.68;2.90;;;16.80;75.80;;;;;;4924215;28;96360;-46
2021/05/24 01:24:01;;;;;;;4.13;2.72;;;16.90;75.70;;;;;;4929739;28;95810;-42
2021/05/24 01:26:32;;;;;;;4.50;2.63;;;16.90;75.30;;;;;;4916697;28;96835;-43
2021/05/24 01:29:03;;;;;;;8.15;2.92;;;17.00;75.00;;;;;;4927391;28;95900;-41
2021/05/24 01:31:34;;;;;;;8.85;3.50;;;17.10;75.30;;;;;;4917513;28;95838;-41
2021/05/24 01:34:05;;;;;;;5.10;2.92;;;17.20;74.40;;;;;;4912190;28;95598;-43
2021/05/24 01:36:38;;;;;;;4.43;3.00;;;17.20;74.20;;;;;;4925643;28;96084;-43
2021/05/24 01:39:09;;;;;;;4.45;3.35;;;17.30;74.40;;;;;;4927625;28;96050;-42
2021/05/24 01:41:40;;;;;;;5.05;4.07;;;17.40;73.90;;;;;;4939507;28;95339;-42
2021/05/24 01:44:10;;;;;;;;;;;17.40;73.20;;;;;;4928190;28;95929;-43
2021/05/24 01:46:41;;;;;;;3.90;3.25;;;17.50;73.70;;;;;;4930340;28;96926;-48
2021/05/24 01:49:12;;;;;;;3.73;3.23;;;17.60;73.10;;;;;;4946806;28;95983;-43
2021/05/24 01:51:43;;;;;;;6.73;3.57;;;17.60;72.60;;;;;;4946397;28;95772;-43
2021/05/24 01:54:15;;;;;;;4.10;2.80;;;17.60;72.00;;;;;;4948305;28;95875;-41
2021/05/24 01:56:46;;;;;;;4.57;3.00;;;17.60;72.00;;;;;;4943305;28;96588;-40
2021/05/24 01:59:19;;;;;;;5.18;3.30;;;17.70;72.20;;;;;;4947815;28;95762;-40
2021/05/24 04:09:16;;;;;;;2.53;1.63;;;21.60;65.50;;;;;;4940060;28;95936;-44
2021/05/24 04:11:48;;;;;;;7.28;2.10;;;21.10;61.50;;;;;;4937616;28;95815;-40
2021/05/24 04:14:19;;;;;;;2.83;1.77;;;21.00;63.60;;;;;;4948744;28;95702;-40
2021/05/24 04:16:55;;;;;;;2.15;1.70;;;20.90;63.40;;;;;;4943434;28;97435;-40
2021/05/24 04:19:27;;;;;;;7.93;1.90;;;20.80;63.70;;;;;;4954017;28;95893;-39
2021/05/24 04:21:59;;;;;;;3.60;2.40;;;20.80;63.80;;;;;;4945322;28;95813;-41
2021/05/24 04:24:29;;;;;;;2.22;2.03;;;20.70;63.60;;;;;;4952005;28;95777;-40
2021/05/24 04:26:59;;;;;;;2.72;2.03;;;20.60;63.90;;;;;;4952576;28;97015;-40
2021/05/24 04:29:30;;;;;;;3.20;2.17;;;20.60;64.10;;;;;;4953141;28;96386;-40
2021/05/24 04:32:00;;;;;;;3.17;1.97;;;20.50;64.80;;;;;;4943655;28;95877;-39
2021/05/24 04:34:30;;;;;;;2.40;2.20;;;20.40;64.40;;;;;;4950664;28;96501;-40
2021/05/24 04:37:02;;;;;;;2.33;2.13;;;20.40;64.40;;;;;;4951969;28;96156;-40
2021/05/24 04:39:34;;;;;;;2.47;1.73;;;20.30;64.60;;;;;;4946235;28;96600;-40
2021/05/24 04:42:05;;;;;;;4.60;2.20;;;20.20;64.70;;;;;;4952080;28;95828;-42
2021/05/24 04:44:36;;;;;;;3.13;2.53;;;20.20;64.90;;;;;;4948971;28;95895;-40
2021/05/24 04:47:07;;;;;;;2.35;1.80;;;20.10;65.10;;;;;;4947002;28;95775;-39
2021/05/24 04:49:39;;;;;;;2.53;1.77;;;20.00;65.30;;;;;;4948758;28;95686;-40
2021/05/24 04:52:09;;;;;;;;;;;20.00;65.40;;;;;;4952840;28;96049;-39
2021/05/24 04:54:40;;;;;;;4.05;1.90;;;20.00;65.70;;;;;;4950885;28;95612;-40
2021/05/24 04:57:12;;;;;;;4.22;1.63;;;20.00;65.70;;;;;;4951870;28;96059;-40
2021/05/24 04:59:43;;;;;;;2.72;1.70;;;20.00;65.90;;;;;;4944877;28;96302;-41
2021/05/24 05:02:14;;;;;;;3.22;2.20;;;20.00;66.10;;;;;;4944609;28;97273;-40
2021/05/24 05:04:46;;;;;;;2.83;1.95;;;20.00;66.20;;;;;;4950929;28;95932;-40
2021/05/24 05:07:16;;;;;;;3.65;1.85;;;20.10;66.60;;;;;;4949028;28;96010;-43
2021/05/24 05:09:48;;;;;;;2.50;2.28;;;20.10;66.70;;;;;;4946318;28;97820;-40
2021/05/24 05:12:20;;;;;;;2.35;1.50;;;20.20;66.80;;;;;;4961791;28;98176;-41
2021/05/24 05:14:54;;;;;;;3.40;2.05;;;20.30;67.00;;;;;;4938339;28;95876;-44
2021/05/24 05:17:26;;;;;;;2.00;1.70;;;20.30;66.90;;;;;;4928726;28;96047;-41
2021/05/24 05:19:58;;;;;;;1.63;1.45;;;20.40;67.30;;;;;;4924670;28;97103;-40
2021/05/24 05:22:29;;;;;;;2.10;1.50;;;20.40;67.30;;;;;;4927765;28;95727;-44
2021/05/24 05:25:01;;;;;;;8.63;2.08;;;20.40;66.40;;;;;;4922916;28;95748;-41
2021/05/24 05:27:32;;;;;;;4.97;2.30;;;20.30;65.80;;;;;;4925937;28;95459;-42
2021/05/24 05:30:05;;;;;;;1.67;1.55;;;20.20;66.10;;;;;;4918186;28;96683;-41
2021/05/24 05:32:36;;;;;;;3.03;1.83;;;20.10;66.30;;;;;;4926699;28;95743;-41
2021/05/24 05:35:07;;;;;;;9.07;1.67;;;20.00;66.60;;;;;;4926009;28;95595;-41
2021/05/24 05:37:37;;;;;;;8.80;2.05;;;20.00;66.70;;;;;;4926649;28;96043;-44
2021/05/24 05:40:16;;;;;;;2.33;1.40;;;19.90;66.80;;;;;;4924304;28;96152;-44
2021/05/24 05:42:47;;;;;;;2.20;1.45;;;19.90;67.00;;;;;;4928768;28;95820;-47
2021/05/24 05:45:18;;;;;;;3.10;1.60;;;19.80;67.10;;;;;;4922938;28;96963;-57
2021/05/24 05:47:49;;;;;;;2.78;1.70;;;19.80;67.20;;;;;;4927312;28;95368;-47
2021/05/24 05:50:21;;;;;;;;;;;19.80;67.30;;;;;;4926798;28;96545;-45
2021/05/24 05:52:52;;;;;;;2.97;2.27;;;19.70;67.40;;;;;;4930467;28;95526;-52
2021/05/24 05:55:23;;;;;;;9.30;1.70;;;19.70;67.40;;;;;;4923575;28;96634;-50
2021/05/24 05:57:56;;;;;;;3.00;1.50;;;19.70;67.50;;;;;;4927390;28;96449;-40
2021/05/24 06:00:27;;;;;;;1.77;1.30;;;19.70;67.80;;;;;;4920298;28;96994;-42
2021/05/24 06:02:57;;;;;;;2.40;1.58;;;19.60;68.50;;;;;;4941065;28;95739;-47
2021/05/24 06:05:27;;;;;;;2.20;1.58;;;19.60;67.90;;;;;;4939750;28;95837;-43
2021/05/24 06:07:58;;;;;;;1.50;1.30;;;19.60;68.00;;;;;;4939371;28;96485;-46
2021/05/24 06:10:31;;;;;;;2.83;1.77;;;19.60;68.10;;;;;;4940685;28;96152;-45
2021/05/24 06:13:03;;;;;;;3.28;1.35;;;19.60;68.30;;;;;;4937956;28;96415;-44
2021/05/24 06:15:35;;;;;;;2.05;1.73;;;19.60;68.60;;;;;;4935540;28;96406;-43
2021/05/24 06:18:06;;;;;;;3.08;1.65;;;19.50;68.00;;;;;;4937394;28;95958;-40
2021/05/24 06:20:38;;;;;;;20.77;2.50;;;19.50;67.90;;;;;;4938411;28;96747;-41
2021/05/24 06:23:08;;;;;;;6.55;3.67;;;19.40;65.30;;;;;;4935428;28;96898;-42
2021/05/24 06:25:40;;;;;;;8.27;4.15;;;19.40;65.40;;;;;;4939512;28;96621;-41
2021/05/24 06:28:12;;;;;;;11.85;6.30;;;19.40;66.10;;;;;;4937520;28;95771;-41
2021/05/24 06:30:43;;;;;;;5.20;3.80;;;19.50;65.60;;;;;;4934957;28;97258;-46
2021/05/24 06:33:14;;;;;;;4.93;2.88;;;19.50;65.20;;;;;;4936772;28;96013;-40
2021/05/24 06:35:45;;;;;;;5.55;3.28;;;19.50;65.40;;;;;;4938906;28;95868;-40
2021/05/24 06:38:16;;;;;;;2.60;2.40;;;19.50;65.30;;;;;;4935450;28;102726;-40
2021/05/24 06:40:47;;;;;;;2.55;2.22;;;19.50;65.10;;;;;;4939892;28;96628;-49
2021/05/24 06:43:19;;;;;;;;;;;19.50;65.30;;;;;;4937520;28;96596;-41
2021/05/24 06:45:50;;;;;;;;;;;19.50;65.40;;;;;;4939197;28;95973;-40
2021/05/24 06:48:22;;;;;;;2.75;2.08;;;19.60;65.30;;;;;;4937913;28;95877;-40
2021/05/24 06:50:54;;;;;;;6.85;2.47;;;19.60;65.40;;;;;;4939513;28;96055;-47
2021/05/24 06:53:24;;;;;;;2.08;1.85;;;19.60;65.20;;;;;;4936370;28;96680;-39
2021/05/24 06:55:54;;;;;;;6.88;1.80;;;19.60;65.80;;;;;;4938947;28;95776;-35
2021/05/24 06:58:29;;;;;;;3.55;1.63;;;19.50;65.90;;;;;;4936804;28;95904;-44
2021/05/24 07:00:59;;;;;;;2.60;1.60;;;19.40;65.30;;;;;;4937300;28;96292;-46
2021/05/24 07:03:30;;;;;;;5.70;1.50;;;19.30;65.90;;;;;;4936315;28;96266;-45
2021/05/24 07:06:00;;;;;;;2.28;1.92;;;19.20;66.40;;;;;;4936735;28;95722;-45
2021/05/24 07:08:31;;;;;;;3.33;1.77;;;19.20;66.30;;;;;;4936725;28;96537;-45
2021/05/24 07:11:03;;;;;;;2.75;1.80;;;19.10;65.60;;;;;;4935709;28;96370;-45
2021/05/24 07:13:34;;;;;;;3.70;1.88;;;19.10;66.10;;;;;;4934325;28;95852;-46
2021/05/24 07:16:07;;;;;;;2.67;1.67;;;19.00;66.50;;;;;;4934948;28;95774;-40
2021/05/24 07:18:38;;;;;;;2.17;1.70;;;18.90;65.60;;;;;;4937420;28;95855;-39
2021/05/24 07:21:10;;;;;;;4.10;2.05;;;18.80;64.10;;;;;;4938428;28;96967;-38
2021/05/24 07:23:40;;;;;;;4.43;2.10;;;18.80;64.60;;;;;;4933702;28;96545;-38
2021/05/24 07:26:10;;;;;;;2.53;1.70;;;18.70;64.10;;;;;;4938074;28;95855;-38
2021/05/24 07:28:42;;;;;;;3.60;1.85;;;18.70;64.10;;;;;;4938868;28;96086;-38
2021/05/24 07:31:12;;;;;;;3.80;1.75;;;18.60;63.70;;;;;;4933609;28;96703;-40
2021/05/24 07:33:42;;;;;;;4.88;1.70;;;18.70;67.10;;;;;;4939011;28;95783;-42
2021/05/24 07:36:12;;;;;;;3.08;1.77;;;18.80;67.50;;;;;;4935759;28;95915;-42
2021/05/24 07:38:44;;;;;;;2.17;1.42;;;19.00;67.40;;;;;;4938428;28;96137;-41
2021/05/24 07:41:16;;;;;;;2.42;1.60;;;19.10;67.20;;;;;;4935646;28;96105;-42
2021/05/24 07:43:47;;;;;;;2.00;1.63;;;19.10;67.30;;;;;;4938668;28;96325;-42
2021/05/24 07:46:18;;;;;;;4.88;2.15;;;19.10;67.40;;;;;;4932912;28;95966;-42
2021/05/24 07:48:48;;;;;;;;;;;19.20;68.00;;;;;;4941168;28;95888;-42
2021/05/24 07:51:20;;;;;;;2.85;1.75;;;19.20;67.90;;;;;;4938998;28;96782;-42
2021/05/24 07:53:54;;;;;;;7.13;2.17;;;19.20;67.80;;;;;;4938727;28;95844;-46
2021/05/24 07:56:25;;;;;;;5.05;2.05;;;19.20;67.80;;;;;;4935742;28;96193;-42
2021/05/24 07:58:57;;;;;;;3.28;2.55;;;19.20;68.20;;;;;;4940061;28;95872;-41
2021/05/24 08:01:27;;;;;;;6.63;2.17;;;19.20;68.30;;;;;;4930733;28;97026;-42
2021/05/24 08:03:57;;;;;;;6.80;2.35;;;19.10;68.20;;;;;;4938356;28;95929;-42
2021/05/24 08:06:28;;;;;;;3.80;2.55;;;19.10;68.20;;;;;;4935639;28;96872;-43
2021/05/24 08:09:00;;;;;;;2.97;2.20;;;19.10;68.50;;;;;;4940346;28;95962;-44
2021/05/24 08:11:33;;;;;;;4.35;2.13;;;19.10;68.70;;;;;;4934191;28;96059;-42
2021/05/24 08:14:06;;;;;;;2.72;2.22;;;19.20;68.70;;;;;;4935473;28;95916;-42
2021/05/24 08:16:37;;;;;;;5.70;2.78;;;19.10;68.70;;;;;;4929537;28;95707;-42
2021/05/24 08:19:09;;;;;;;4.80;2.22;;;19.10;69.10;;;;;;4936185;28;96031;-42
2021/05/24 08:21:45;;;;;;;5.68;2.63;;;19.10;68.90;;;;;;4934168;28;96518;-42
2021/05/24 08:24:17;;;;;;;9.75;3.40;;;19.10;69.00;;;;;;4938121;28;95940;-41
2021/05/24 08:26:48;;;;;;;4.43;3.30;;;19.00;69.10;;;;;;4934356;28;96079;-42
2021/05/24 08:29:19;;;;;;;7.47;3.40;;;19.00;69.50;;;;;;4937263;28;96436;-42
2021/05/24 08:31:50;;;;;;;6.25;3.40;;;19.00;69.60;;;;;;4930114;28;96789;-41
2021/05/24 08:34:23;;;;;;;7.65;3.55;;;19.00;69.70;;;;;;4952714;28;96297;-41
2021/05/24 08:36:52;;;;;;;6.30;2.95;;;18.90;69.60;;;;;;4934586;28;96098;-42
2021/05/24 08:39:23;;;;;;;5.50;3.63;;;18.90;69.80;;;;;;4937816;28;95588;-41
2021/05/24 08:41:55;;;;;;;;;;;18.90;70.00;;;;;;4936049;28;96356;-42
2021/05/24 08:44:29;;;;;;;7.50;3.20;;;18.90;70.20;;;;;;4939452;28;95851;-42
2021/05/24 08:47:01;;;;;;;6.82;3.60;;;18.80;70.30;;;;;;4932630;28;96864;-42
2021/05/24 08:49:47;;;;;;;6.22;4.40;;;18.80;70.40;;;;;;4942003;28;97295;-42
2021/05/24 08:52:17;;;;;;;7.43;3.93;;;18.70;70.40;;;;;;4938135;28;102029;-42
2021/05/24 08:54:48;;;;;;;10.55;3.72;;;18.70;70.60;;;;;;4940994;28;96616;-42
2021/05/24 08:57:19;;;;;;;;;;;18.70;70.60;;;;;;4941167;28;95907;-42
2021/05/24 08:59:50;;;;;;;5.43;3.60;;;18.70;70.70;;;;;;4942773;28;95678;-42
2021/05/24 09:02:24;;;;;;;6.28;3.85;;;18.60;70.70;;;;;;4936978;28;96145;-42
2021/05/24 09:04:55;;;;;;;;;;;18.60;70.70;;;;;;4940995;28;95790;-42
2021/05/24 09:07:25;;;;;;;5.65;3.00;;;18.60;70.70;;;;;;4956533;28;96498;-42
2021/05/24 09:10:04;;;;;;;6.40;3.30;;;18.60;70.50;;;;;;4938558;28;96103;-42
2021/05/24 09:12:35;;;;;;;4.50;2.97;;;18.60;70.30;;;;;;4940167;28;96477;-42
2021/05/24 09:15:12;;;;;;;4.90;3.20;;;18.50;70.30;;;;;;4936493;28;98228;-42
2021/05/24 09:17:53;;;;;;;3.75;3.35;;;18.50;70.40;;;;;;4934975;28;96423;-42
2021/05/24 09:20:25;;;;;;;5.43;3.53;;;18.40;70.60;;;;;;4937927;28;95888;-42
2021/05/24 09:23:24;;;;;;;5.82;3.47;;;18.40;70.80;;;;;;4939016;28;96170;-42
2021/05/24 09:26:04;;;;;;;5.22;3.05;;;18.40;70.90;;;;;;4936592;28;97409;-46
2021/05/24 09:28:51;;;;;;;7.95;3.50;;;18.30;70.80;;;;;;4935061;28;96632;-41
2021/05/24 09:31:26;;;;;;;4.72;3.40;;;18.30;71.00;;;;;;4933650;28;95916;-42
2021/05/24 09:34:01;;;;;;;6.30;4.03;;;18.30;71.10;;;;;;4937319;28;96106;-45
2021/05/24 09:36:34;;;;;;;8.07;4.00;;;18.20;71.10;;;;;;4937192;28;96188;-40
2021/05/24 09:39:07;;;;;;;8.18;4.70;;;18.20;71.20;;;;;;4935976;28;96059;-44
2021/05/24 09:41:47;;;;;;;6.47;3.47;;;18.20;71.70;;;;;;4944133;28;95895;-42
2021/05/24 09:44:30;;;;;;;5.82;3.58;;;18.20;71.70;;;;;;4938290;28;97021;-40
2021/05/24 09:47:02;;;;;;;8.57;4.05;;;18.20;71.80;;;;;;4929973;28;95844;-40
2021/05/24 09:49:33;;;;;;;7.65;4.05;;;18.20;71.60;;;;;;4910593;28;95805;-42
2021/05/24 09:52:04;;;;;;;;;;;18.20;71.90;;;;;;4927880;28;95466;-41
2021/05/24 09:54:38;;;;;;;6.00;4.20;;;18.20;71.80;;;;;;4925146;28;96677;-41
2021/05/24 09:57:11;;;;;;;6.03;4.38;;;18.20;71.70;;;;;;4926989;28;95825;-41
2021/05/24 09:59:43;;;;;;;7.13;4.78;;;18.20;71.70;;;;;;4921211;28;95913;-49
2021/05/24 10:02:24;;;;;;;6.38;4.70;;;18.10;71.70;;;;;;4924545;28;95886;-44
2021/05/24 10:04:55;;;;;;;;;;;18.10;71.70;;;;;;4922587;28;96967;-41
2021/05/24 10:07:29;;;;;;;6.90;4.47;;;18.10;71.70;;;;;;4928900;28;98377;-41
2021/05/24 10:10:02;;;;;;;8.68;5.07;;;18.10;71.80;;;;;;4925592;28;95658;-41
2021/05/24 10:12:39;;;;;;;7.03;4.50;;;18.00;71.70;;;;;;4926951;28;98023;-41
2021/05/24 10:15:15;;;;;;;4.95;4.07;;;18.00;71.80;;;;;;4922700;28;96998;-41
2021/05/24 10:17:52;;;;;;;5.40;3.72;;;17.90;71.80;;;;;;4925559;28;102142;-41
2021/05/24 10:20:24;;;;;;;5.40;4.18;;;17.90;71.80;;;;;;4924562;28;95844;-41
2021/05/24 10:22:53;;;;;;;5.95;4.32;;;17.90;71.70;;;;;;4925394;28;96097;-41
2021/05/24 10:25:24;;;;;;;6.78;4.47;;;17.90;71.70;;;;;;4922195;28;96485;-41
2021/05/24 10:27:55;;;;;;;5.70;4.45;;;17.90;71.70;;;;;;4923452;28;96293;-42
2021/05/24 10:30:25;;;;;;;7.90;4.20;;;17.90;72.30;;;;;;4920231;28;95228;-41
2021/05/24 10:33:00;;;;;;;5.03;4.53;;;18.00;71.70;;;;;;4941997;28;95796;-42
2021/05/24 10:35:39;;;;;;;5.90;4.30;;;17.90;71.70;;;;;;4946725;28;97038;-41
2021/05/24 10:38:32;;;;;;;6.13;4.30;;;18.00;71.70;;;;;;4946197;28;95784;-41
2021/05/24 10:41:16;;;;;;;6.50;4.32;;;17.90;71.60;;;;;;4944883;28;95794;-41
2021/05/24 10:43:57;;;;;;;7.80;4.85;;;17.90;71.60;;;;;;4944765;28;95918;-42
2021/05/24 10:46:31;;;;;;;10.38;5.20;;;17.90;71.70;;;;;;4929913;28;98496;-41
2021/05/24 10:49:22;;;;;;;4.88;4.18;;;17.90;71.90;;;;;;4923602;28;96000;-41
2021/05/24 10:51:59;;;;;;;6.40;4.68;;;17.90;71.90;;;;;;4921972;28;95796;-41
2021/05/24 10:54:32;;;;;;;10.00;5.50;;;17.90;72.00;;;;;;4923556;28;96005;-43
2021/05/24 10:57:05;;;;;;;7.35;4.47;;;17.80;72.30;;;;;;4922702;28;96172;-42
2021/05/24 10:59:46;;;;;;;7.13;5.07;;;17.70;72.40;;;;;;4925978;28;95884;-42
2021/05/24 11:02:18;;;;;;;5.50;4.57;;;17.70;72.60;;;;;;4932906;28;96146;-41
2021/05/24 11:05:04;;;;;;;6.25;4.57;;;17.70;72.70;;;;;;4945990;28;95699;-42
2021/05/24 11:07:46;;;;;;;11.88;5.25;;;17.60;72.70;;;;;;4940492;28;96088;-42
2021/05/24 11:10:20;;;;;;;7.07;5.47;;;17.60;72.90;;;;;;4944048;28;95686;-42
2021/05/24 11:13:12;;;;;;;8.32;5.22;;;17.60;72.90;;;;;;4939825;28;96099;-42
2021/05/24 11:15:45;;;;;;;6.97;4.60;;;17.50;72.80;;;;;;4940340;28;95822;-41
2021/05/24 11:18:23;;;;;;;7.10;5.25;;;17.50;73.00;;;;;;4939943;28;96094;-42
2021/05/24 11:21:14;;;;;;;5.57;4.70;;;17.40;73.00;;;;;;4942891;28;95794;-42
2021/05/24 11:29:19;;;;;;;8.05;5.45;;;17.30;73.00;;;;;;4938551;28;96168;-43
2021/05/24 11:31:54;;;;;;;8.00;4.80;;;17.30;73.10;;;;;;4937305;28;95948;-43
2021/05/24 11:34:36;;;;;;;6.60;4.82;;;17.30;73.20;;;;;;4940590;28;95742;-43
2021/05/24 11:37:09;;;;;;;6.65;5.18;;;17.20;73.10;;;;;;4942660;28;95630;-42
2021/05/24 11:39:54;;;;;;;9.45;5.68;;;17.20;73.20;;;;;;4939652;28;96715;-42
2021/05/24 11:42:32;;;;;;;7.82;5.97;;;17.20;73.30;;;;;;4944455;28;95671;-42
2021/05/24 11:45:06;;;;;;;8.02;5.93;;;17.20;73.20;;;;;;4935877;28;96613;-42
2021/05/24 11:47:40;;;;;;;11.35;5.97;;;17.10;73.20;;;;;;4942540;28;95469;-43
2021/05/24 11:50:11;;;;;;;7.38;5.45;;;17.10;73.30;;;;;;4939021;28;96944;-42
2021/05/24 11:52:42;;;;;;;10.93;6.03;;;17.00;73.30;;;;;;4944470;28;95992;-42
2021/05/24 11:55:15;;;;;;;8.48;5.53;;;17.00;73.30;;;;;;4941169;28;95615;-42
2021/05/24 11:57:48;;;;;;;7.60;6.03;;;17.00;73.30;;;;;;4945707;28;95857;-42
2021/05/24 12:00:25;;;;;;;7.07;5.60;;;17.00;73.40;;;;;;4938791;28;96954;-44
2021/05/24 12:03:02;;;;;;;8.05;5.80;;;17.00;73.40;;;;;;4942525;28;102367;-42
2021/05/24 12:05:33;;;;;;;7.72;5.97;;;17.00;73.40;;;;;;4940437;28;95895;-42
2021/05/24 12:08:05;;;;;;;8.18;5.75;;;16.90;73.40;;;;;;4944992;28;95453;-43
2021/05/24 12:10:38;;;;;;;10.88;6.20;;;16.90;73.50;;;;;;4942140;28;96427;-43
2021/05/24 12:13:11;;;;;;;10.27;5.68;;;16.90;73.50;;;;;;4940830;28;96278;-44
2021/05/24 12:15:43;;;;;;;7.85;5.88;;;16.90;73.50;;;;;;4935381;28;96218;-43
2021/05/24 12:18:16;;;;;;;8.88;5.47;;;16.80;73.50;;;;;;4942251;28;95686;-42
2021/05/24 12:20:47;;;;;;;9.80;6.15;;;16.80;73.60;;;;;;4940851;28;98974;-43
2021/05/24 12:23:18;;;;;;;6.18;5.10;;;16.80;73.60;;;;;;4947159;28;96337;-43
2021/05/24 12:25:50;;;;;;;8.30;5.50;;;16.80;73.60;;;;;;4943225;28;95598;-43
2021/05/24 12:28:26;;;;;;;9.25;7.00;;;16.70;73.60;;;;;;4947752;28;96012;-44
2021/05/24 12:30:59;;;;;;;9.52;6.60;;;16.70;73.70;;;;;;4940429;28;96053;-43
2021/05/24 12:33:29;;;;;;;7.03;5.50;;;16.70;73.60;;;;;;4946727;28;95930;-43
2021/05/24 12:36:02;;;;;;;9.27;6.32;;;16.70;73.60;;;;;;4943103;28;95620;-43
2021/05/24 12:38:44;;;;;;;9.63;7.22;;;16.70;73.60;;;;;;4945350;28;96992;-43
2021/05/24 12:41:17;;;;;;;10.00;6.77;;;16.70;73.60;;;;;;4937657;28;96371;-42
2021/05/24 12:44:02;;;;;;;7.95;5.97;;;16.70;73.60;;;;;;4947109;28;96374;-43
2021/05/24 12:46:41;;;;;;;8.18;6.00;;;16.70;73.70;;;;;;4940831;28;103332;-42
2021/05/24 12:49:12;;;;;;;8.07;5.78;;;16.70;73.70;;;;;;4948598;28;95600;-43
2021/05/24 12:51:43;;;;;;;8.00;5.30;;;16.60;73.60;;;;;;4943823;28;96398;-43
2021/05/24 12:54:13;;;;;;;8.60;5.55;;;16.60;73.60;;;;;;4948245;28;96244;-43
2021/05/24 12:56:46;;;;;;;9.50;6.53;;;16.60;73.80;;;;;;4944270;28;95697;-43
2021/05/24 12:59:25;;;;;;;9.38;6.53;;;16.60;73.80;;;;;;4949166;28;95691;-43
2021/05/24 13:02:03;;;;;;;7.53;5.53;;;16.60;73.80;;;;;;4940103;28;98717;-42
2021/05/24 13:04:36;;;;;;;10.45;6.22;;;16.60;73.80;;;;;;4948287;28;95886;-42
2021/05/24 13:07:26;;;;;;;11.05;6.38;;;16.60;73.80;;;;;;4940301;28;95925;-43
2021/05/24 13:10:08;;;;;;;8.30;6.53;;;16.60;73.80;;;;;;4947355;28;96131;-42
2021/05/24 13:12:44;;;;;;;7.75;5.38;;;16.50;73.80;;;;;;4945038;28;96733;-43
2021/05/24 13:15:32;;;;;;;11.30;6.28;;;16.60;73.90;;;;;;4944312;28;95892;-43
2021/05/24 13:18:12;;;;;;;6.40;5.32;;;16.50;73.90;;;;;;4943421;28;96081;-43
2021/05/24 13:21:04;;;;;;;8.50;5.78;;;16.60;73.80;;;;;;4947898;28;95792;-43
2021/05/24 13:32:04;;;;;;;7.57;5.13;;;16.50;73.80;;;;;;4942215;28;95570;-42
2021/05/24 13:34:36;;;;;;;6.68;5.03;;;16.50;73.90;;;;;;4943326;28;96977;-40
2021/05/24 13:37:11;;;;;;;7.75;5.50;;;16.50;73.90;;;;;;4947734;28;95748;-40
2021/05/24 13:39:44;;;;;;;6.20;4.90;;;16.50;74.00;;;;;;4944484;28;95908;-43
2021/05/24 13:42:17;;;;;;;7.75;5.88;;;16.50;74.10;;;;;;4947455;28;95928;-37
2021/05/24 13:44:50;;;;;;;8.05;5.07;;;16.50;74.10;;;;;;4945806;28;95897;-39
2021/05/24 13:47:26;;;;;;;7.20;5.22;;;16.50;74.40;;;;;;4948954;28;95963;-38
2021/05/24 13:49:57;;;;;;;6.38;4.70;;;16.50;74.70;;;;;;4942847;28;95882;-42
2021/05/24 13:52:27;;;;;;;7.43;4.47;;;16.50;74.70;;;;;;4951099;28;95922;-42
2021/05/24 13:54:58;;;;;;;7.87;5.43;;;16.40;74.70;;;;;;4946716;28;97615;-40
2021/05/24 13:57:29;;;;;;;7.67;5.43;;;16.40;75.00;;;;;;4948134;28;96165;-40
2021/05/24 14:00:01;;;;;;;6.93;5.25;;;16.40;75.10;;;;;;4944404;28;96132;-45
2021/05/24 14:02:33;;;;;;;7.15;5.03;;;16.30;75.10;;;;;;4943874;28;96140;-45
2021/05/24 14:05:07;;;;;;;6.20;4.38;;;16.30;75.40;;;;;;4944843;28;96065;-45
2021/05/24 14:07:38;;;;;;;5.70;4.57;;;16.20;75.40;;;;;;4945796;28;97003;-45
2021/05/24 14:10:14;;;;;;;7.15;4.07;;;16.30;75.60;;;;;;4945186;28;98883;-45
2021/05/24 14:12:47;;;;;;;6.10;4.32;;;16.20;75.60;;;;;;4949200;28;95767;-40
2021/05/24 14:15:19;;;;;;;5.95;4.45;;;16.20;75.60;;;;;;4940329;28;96713;-40
2021/05/24 14:17:53;;;;;;;5.70;4.38;;;16.20;75.80;;;;;;4946725;28;95479;-41
2021/05/24 14:20:25;;;;;;;4.75;3.85;;;16.20;75.70;;;;;;4945409;28;96183;-40
2021/05/24 14:22:55;;;;;;;7.20;4.25;;;16.20;76.60;;;;;;4948580;28;95883;-41
2021/05/24 14:25:25;;;;;;;5.60;4.40;;;16.20;75.90;;;;;;4944546;28;96096;-38
2021/05/24 14:27:55;;;;;;;6.15;4.05;;;16.10;76.00;;;;;;4949353;28;95934;-38
2021/05/24 14:30:28;;;;;;;6.05;4.25;;;16.10;76.00;;;;;;4943094;28;96053;-38
2021/05/24 14:33:01;;;;;;;4.93;3.80;;;16.10;76.10;;;;;;4950323;28;95345;-38
2021/05/24 14:35:32;;;;;;;6.22;4.28;;;16.10;76.20;;;;;;4942021;28;96367;-38
2021/05/24 14:38:06;;;;;;;6.03;4.07;;;16.10;76.20;;;;;;4949501;28;96013;-38
2021/05/24 14:40:38;;;;;;;6.18;4.43;;;16.10;76.30;;;;;;4945054;28;96178;-38
2021/05/24 14:43:09;;;;;;;6.47;4.25;;;16.10;76.40;;;;;;4953802;28;95605;-45
2021/05/24 14:45:41;;;;;;;5.82;4.20;;;16.10;76.40;;;;;;4957912;28;96087;-45
2021/05/24 14:48:12;;;;;;;;;;;16.10;76.40;;;;;;4926686;28;96151;-45
2021/05/24 14:50:48;;;;;;;4.68;3.83;;;16.10;76.50;;;;;;4931027;28;95781;-45
2021/05/24 14:53:23;;;;;;;4.40;3.45;;;16.10;76.40;;;;;;4928900;28;95678;-46
2021/05/24 14:55:55;;;;;;;6.28;3.38;;;16.20;76.50;;;;;;4927878;28;96438;-45
2021/05/24 14:58:26;;;;;;;4.60;3.72;;;16.20;76.50;;;;;;4925954;28;95924;-45
2021/05/24 15:00:59;;;;;;;4.72;3.53;;;16.20;76.50;;;;;;4921177;28;95836;-45
2021/05/24 15:03:29;;;;;;;7.78;3.78;;;16.20;76.60;;;;;;4925491;28;95697;-45
2021/05/24 15:05:59;;;;;;;4.15;3.63;;;16.20;76.60;;;;;;4928578;28;97733;-45
2021/05/24 15:08:30;;;;;;;3.45;3.15;;;16.20;76.60;;;;;;4926204;28;96296;-46
2021/05/24 15:11:02;;;;;;;3.58;2.80;;;16.20;76.50;;;;;;4929067;28;95702;-45
2021/05/24 15:13:33;;;;;;;3.90;2.55;;;16.20;77.10;;;;;;4926642;28;95875;-45
2021/05/24 15:16:04;;;;;;;3.97;3.38;;;16.20;76.60;;;;;;4930957;28;96914;-45
2021/05/24 15:18:35;;;;;;;6.40;3.25;;;16.20;76.50;;;;;;4944565;28;95896;-45
2021/05/24 15:21:08;;;;;;;4.25;3.00;;;16.20;76.50;;;;;;4947934;28;95419;-45
2021/05/24 15:23:39;;;;;;;4.10;3.38;;;16.20;76.50;;;;;;4942646;28;95768;-46
2021/05/24 15:26:11;;;;;;;4.38;2.97;;;16.20;76.60;;;;;;4948753;28;96066;-47
2021/05/24 15:28:43;;;;;;;5.20;3.13;;;16.20;76.60;;;;;;4945269;28;96471;-45
2021/05/24 15:31:14;;;;;;;4.72;3.13;;;16.20;76.50;;;;;;4949546;28;95463;-46
2021/05/24 15:33:45;;;;;;;3.65;2.72;;;16.20;76.40;;;;;;4947072;28;101663;-45
2021/05/24 15:36:15;;;;;;;3.40;2.42;;;16.20;76.60;;;;;;4958826;28;96738;-45
2021/05/24 15:38:49;;;;;;;3.10;2.70;;;16.20;76.60;;;;;;4942871;28;100897;-45
2021/05/24 15:41:19;;;;;;;;;;;16.20;76.60;;;;;;4948777;28;95799;-46